Time;durP1;ratioP1;P1;durP2;ratioP2;P2;SDS_P1;SDS_P2;PMS_P1;PMS_P2;Temp;Humidity;BMP_temperature;BMP_pressure;BME280_temperature;BME280_humidity;BME280_pressure;Samples;Min_cycle;Max_cycle;Signal;HPM_P1;HPM_P2
2024/02/21 00:02:22;;;;;;;;;;;;;;;7.10;100.00;99532.03;5029722;28;19920;-78
2024/02/21 00:04:47;;;;;;;;;;;;;;;7.09;100.00;99525.75;5029660;28;19927;-76
2024/02/21 00:07:18;;;;;;;;;;;;;;;7.13;100.00;99518.28;5029646;28;20435;-77
2024/02/21 00:09:46;;;;;;;;;;;;;;;7.16;100.00;99519.47;5030272;28;19937;-79
2024/02/21 00:12:13;;;;;;;;;;;;;;;7.13;100.00;99526.53;5024710;28;19921;-78
2024/02/21 00:14:39;;;;;;;;;;;;;;;7.16;100.00;99517.50;5032245;28;19963;-77
2024/02/21 00:17:04;;;;;;;;;;;;;;;7.08;100.00;99520.63;5037799;28;19960;-78
2024/02/21 00:19:29;;;;;;;;;;;;;;;7.03;100.00;99524.56;5030708;28;19951;-77
2024/02/21 00:22:01;;;;;;;;;;;;;;;7.09;100.00;99522.22;5049218;28;19919;-76
2024/02/21 00:24:27;;;;;;;;;;;;;;;7.08;100.00;99520.63;5050289;28;20305;-76
2024/02/21 00:26:53;;;;;;;;;;;;;;;7.09;100.00;99525.75;5037203;28;19917;-76
2024/02/21 00:29:20;;;;;;;;;;;;;;;7.12;100.00;99522.19;5018545;28;19917;-75
2024/02/21 00:31:45;;;;;;;;;;;;;;;7.17;100.00;99512.81;5036893;28;19996;-76
2024/02/21 00:34:12;;;;;;;;;;;;;;;7.09;100.00;99513.97;5034772;28;20416;-79
2024/02/21 00:36:39;;;;;;;;;;;;;;;7.04;100.00;99509.66;5037711;28;19924;-78
2024/02/21 00:39:04;;;;;;;;;;;;;;;7.03;100.00;99510.84;5048304;28;19913;-77
2024/02/21 00:41:33;;;;;;;;;;;;;;;6.98;100.00;99508.47;5049075;28;20369;-77
2024/02/21 00:44:00;;;;;;;;;;;;;;;7.05;100.00;99500.25;5036453;28;19948;-79
2024/02/21 00:46:26;;;;;;;;;;;;;;;7.00;100.00;99499.81;5032429;28;20404;-78
2024/02/21 00:48:52;;;;;;;;;;;;;;;7.11;100.00;99495.13;5043296;28;19962;-78
2024/02/21 00:51:17;;;;;;;;;;;;;;;7.12;100.00;99497.47;5009967;28;19922;-76
2024/02/21 00:53:45;;;;;;;;;;;;;;;7.15;100.00;99493.94;5042905;28;20279;-75
2024/02/21 00:56:19;;;;;;;;;;;;;;;7.12;100.00;99497.47;5029787;28;20007;-76
2024/02/21 00:58:44;;;;;;;;;;;;;;;7.16;100.00;99498.28;5028885;28;20381;-76
2024/02/21 01:01:11;;;;;;;;;;;;;;;7.14;100.00;99497.09;5028583;28;19913;-79
2024/02/21 01:03:39;;;;;;;;;;;;;;;7.08;100.00;99496.69;5021121;28;19952;-77
2024/02/21 01:06:04;;;;;;;;;;;;;;;7.05;100.00;99496.72;5034860;28;19924;-78
2024/02/21 01:08:29;;;;;;;;;;;;;;;7.07;100.00;99497.88;5040897;28;19913;-76
2024/02/21 01:10:56;;;;;;;;;;;;;;;7.14;100.00;99489.63;5028566;28;19913;-78
2024/02/21 01:13:21;;;;;;;;;;;;;;;7.12;100.00;99493.94;5036860;28;20423;-78
2024/02/21 01:15:47;;;;;;;;;;;;;;;7.16;100.00;99492.78;5030393;28;19917;-78
2024/02/21 01:18:12;;;;;;;;;;;;;;;7.19;100.00;99489.22;5028617;28;20463;-74
2024/02/21 01:20:39;;;;;;;;;;;;;;;7.22;100.00;99493.94;5041418;28;19917;-76
2024/02/21 01:23:10;;;;;;;;;;;;;;;7.21;100.00;99491.59;5028713;28;19914;-79
2024/02/21 01:25:40;;;;;;;;;;;;;;;7.23;100.00;99492.75;5030152;28;19923;-79
2024/02/21 01:28:06;;;;;;;;;;;;;;;7.13;100.00;99488.06;5042353;28;19917;-75
2024/02/21 01:30:38;;;;;;;;;;;;;;;7.06;100.00;99493.53;5033576;28;19918;-76
2024/02/21 01:33:03;;;;;;;;;;;;;;;7.12;100.00;99493.94;5042558;28;19917;-74
2024/02/21 01:35:30;;;;;;;;;;;;;;;7.13;100.00;99492.75;5034951;28;20453;-77
2024/02/21 01:37:56;;;;;;;;;;;;;;;7.15;100.00;99493.16;5042750;28;19919;-75
2024/02/21 01:40:21;;;;;;;;;;;;;;;7.07;100.00;99488.84;5035088;27;19913;-76
2024/02/21 01:42:47;;;;;;;;;;;;;;;7.06;100.00;99493.53;5042087;28;19913;-73
2024/02/21 01:45:13;;;;;;;;;;;;;;;7.09;100.00;99492.78;5045113;28;19968;-74
2024/02/21 01:47:38;;;;;;;;;;;;;;;7.12;100.00;99489.22;5031580;28;19917;-79
2024/02/21 01:50:04;;;;;;;;;;;;;;;7.13;100.00;99487.25;5034276;28;19913;-77
2024/02/21 01:52:34;;;;;;;;;;;;;;;7.10;100.00;99488.84;5051201;28;19912;-77
2024/02/21 01:55:00;;;;;;;;;;;;;;;7.06;100.00;99481.78;5051145;28;19921;-77
2024/02/21 01:57:28;;;;;;;;;;;;;;;6.95;100.00;99476.28;5042440;28;19925;-78
2024/02/21 01:59:55;;;;;;;;;;;;;;;6.95;100.00;99474.31;5035184;28;19913;-77
2024/02/21 02:02:21;;;;;;;;;;;;;;;6.82;100.00;99473.16;5040936;28;20442;-78
2024/02/21 02:04:55;;;;;;;;;;;;;;;6.99;100.00;99484.53;5019473;28;19924;-76
2024/02/21 02:07:22;;;;;;;;;;;;;;;7.07;100.00;99475.09;5051742;27;19916;-77
2024/02/21 02:09:47;;;;;;;;;;;;;;;7.08;100.00;99480.22;5037965;27;20331;-76
2024/02/21 02:12:12;;;;;;;;;;;;;;;7.08;100.00;99471.19;5039389;28;19946;-77
2024/02/21 02:14:38;;;;;;;;;;;;;;;7.02;100.00;99476.28;5037288;28;19916;-76
2024/02/21 02:17:06;;;;;;;;;;;;;;;7.04;100.00;99471.19;5040266;28;19955;-77
2024/02/21 02:19:31;;;;;;;;;;;;;;;7.08;100.00;99479.44;5030966;28;19913;-76
2024/02/21 02:22:02;;;;;;;;;;;;;;;7.04;100.00;99465.69;5031072;28;20382;-78
2024/02/21 02:24:27;;;;;;;;;;;;;;;7.18;100.00;99462.13;5050284;28;19927;-75
2024/02/21 02:26:52;;;;;;;;;;;;;;;7.18;100.00;99457.41;5050976;28;19924;-80
2024/02/21 02:29:20;;;;;;;;;;;;;;;7.16;100.00;99453.50;5030934;28;19921;-77
2024/02/21 02:31:47;;;;;;;;;;;;;;;7.13;100.00;99457.03;5044183;28;19912;-79
2024/02/21 02:34:12;;;;;;;;;;;;;;;7.04;100.00;99451.97;5050713;28;19920;-77
2024/02/21 02:36:38;;;;;;;;;;;;;;;7.04;100.00;99446.47;5037473;28;20301;-76
2024/02/21 02:39:03;;;;;;;;;;;;;;;6.95;100.00;99452.34;5027616;28;19925;-78
2024/02/21 02:41:32;;;;;;;;;;;;;;;7.02;100.00;99451.56;5032431;28;19936;-78
2024/02/21 02:43:58;;;;;;;;;;;;;;;7.03;100.00;99450.38;5019074;27;19920;-80
2024/02/21 02:46:25;;;;;;;;;;;;;;;6.95;100.00;99454.31;5099940;27;20010;-79
2024/02/21 02:48:51;;;;;;;;;;;;;;;6.96;100.00;99455.88;5030880;28;19978;-79
2024/02/21 02:51:18;;;;;;;;;;;;;;;6.96;100.00;99444.91;5030359;28;20377;-80
2024/02/21 02:53:44;;;;;;;;;;;;;;;7.00;100.00;99442.13;5043861;28;20386;-79
2024/02/21 02:56:16;;;;;;;;;;;;;;;7.04;100.00;99451.97;5045362;28;19960;-77
2024/02/21 02:58:42;;;;;;;;;;;;;;;7.03;100.00;99446.84;5050610;28;20011;-78
2024/02/21 03:01:08;;;;;;;;;;;;;;;6.97;100.00;99451.97;5036304;27;19920;-78
2024/02/21 03:03:33;;;;;;;;;;;;;;;6.98;100.00;99453.53;5010819;28;20390;-80
2024/02/21 03:06:00;;;;;;;;;;;;;;;6.95;100.00;99446.06;5025558;28;19925;-77
2024/02/21 03:08:29;;;;;;;;;;;;;;;6.93;100.00;99448.44;5030968;28;20788;-77
2024/02/21 03:10:54;;;;;;;;;;;;;;;6.88;100.00;99446.06;5044464;28;19913;-79
2024/02/21 03:13:20;;;;;;;;;;;;;;;6.92;100.00;99444.13;5051193;28;19942;-77
2024/02/21 03:15:46;;;;;;;;;;;;;;;6.89;100.00;99450.41;5049869;28;19913;-76
2024/02/21 03:18:12;;;;;;;;;;;;;;;6.88;100.00;99454.31;5051582;28;19913;-79
2024/02/21 03:20:37;;;;;;;;;;;;;;;6.88;100.00;99448.81;5049667;28;19917;-79
2024/02/21 03:23:03;;;;;;;;;;;;;;;6.85;100.00;99452.38;5050103;28;19913;-77
2024/02/21 03:25:29;;;;;;;;;;;;;;;6.81;100.00;99452.34;5037741;28;20440;-75
2024/02/21 03:27:54;;;;;;;;;;;;;;;6.87;100.00;99448.03;5042901;28;19959;-76
2024/02/21 03:30:21;;;;;;;;;;;;;;;6.86;100.00;99459.44;5029545;28;19952;-77
2024/02/21 03:32:47;;;;;;;;;;;;;;;6.84;100.00;99464.53;5030314;28;19936;-78
2024/02/21 03:35:14;;;;;;;;;;;;;;;6.88;100.00;99459.81;5043964;28;19913;-78
2024/02/21 03:37:41;;;;;;;;;;;;;;;6.99;100.00;99466.09;5042858;28;19922;-78
2024/02/21 03:40:11;;;;;;;;;;;;;;;7.02;100.00;99465.31;5027330;28;19924;-76
2024/02/21 03:42:37;;;;;;;;;;;;;;;7.08;100.00;99471.97;5051138;28;19913;-79
2024/02/21 03:45:03;;;;;;;;;;;;;;;7.08;100.00;99458.22;5047968;28;19973;-77
2024/02/21 03:47:28;;;;;;;;;;;;;;;7.08;100.00;99460.19;5021213;28;20385;-76
2024/02/21 03:49:56;;;;;;;;;;;;;;;7.12;100.00;99467.25;5036089;28;19941;-75
2024/02/21 03:52:21;;;;;;;;;;;;;;;7.17;100.00;99455.84;5029892;28;20306;-78
2024/02/21 03:54:50;;;;;;;;;;;;;;;7.21;100.00;99456.66;5044328;28;19917;-78
2024/02/21 03:57:21;;;;;;;;;;;;;;;7.30;98.11;99459.75;5049191;28;19925;-78
2024/02/21 03:59:46;;;;;;;;;;;;;;;7.33;97.64;99463.69;5046965;28;20061;-77
2024/02/21 04:02:14;;;;;;;;;;;;;;;7.39;97.29;99459.34;5039740;28;19927;-77
2024/02/21 04:04:43;;;;;;;;;;;;;;;7.41;97.12;99456.22;5046887;28;20012;-74
2024/02/21 04:07:08;;;;;;;;;;;;;;;7.35;97.27;99459.34;5029650;28;19917;-76
2024/02/21 04:09:35;;;;;;;;;;;;;;;7.41;97.68;99457.00;5045955;28;19913;-76
2024/02/21 04:12:00;;;;;;;;;;;;;;;7.30;98.46;99457.00;5039524;28;20396;-78
2024/02/21 04:14:28;;;;;;;;;;;;;;;7.34;99.01;99457.81;5033008;28;20003;-79
2024/02/21 04:16:55;;;;;;;;;;;;;;;7.29;99.15;99455.44;5040080;28;19913;-76
2024/02/21 04:19:22;;;;;;;;;;;;;;;7.35;99.23;99456.59;5016839;28;19923;-78
2024/02/21 04:21:49;;;;;;;;;;;;;;;7.39;98.87;99455.81;5038157;28;19970;-77
2024/02/21 04:24:14;;;;;;;;;;;;;;;7.41;98.18;99451.50;5034530;28;19912;-78
2024/02/21 04:26:41;;;;;;;;;;;;;;;7.40;97.91;99451.91;5039207;28;19917;-75
2024/02/21 04:29:14;;;;;;;;;;;;;;;7.41;98.25;99450.72;5030220;28;20291;-75
2024/02/21 04:31:53;;;;;;;;;;;;;;;7.38;98.08;99451.50;5030644;28;19917;-78
2024/02/21 04:34:19;;;;;;;;;;;;;;;7.37;97.87;99458.97;5016862;28;20025;-79
2024/02/21 04:36:44;;;;;;;;;;;;;;;7.38;98.44;99462.50;5029037;28;19925;-77
2024/02/21 04:39:11;;;;;;;;;;;;;;;7.33;98.84;99464.47;5036202;28;19913;-77
2024/02/21 04:41:37;;;;;;;;;;;;;;;7.29;99.08;99468.41;5035732;28;19985;-74
2024/02/21 04:44:03;;;;;;;;;;;;;;;7.28;99.14;99467.63;5048912;28;20378;-77
2024/02/21 04:46:29;;;;;;;;;;;;;;;7.28;98.77;99467.63;5047872;28;20313;-77
2024/02/21 04:49:00;;;;;;;;;;;;;;;7.27;98.01;99468.81;5029181;28;19913;-78
2024/02/21 04:51:30;;;;;;;;;;;;;;;7.29;97.15;99479.41;5042215;28;20386;-76
2024/02/21 04:53:55;;;;;;;;;;;;;;;7.28;97.33;99470.38;5029971;28;19913;-78
2024/02/21 04:56:20;;;;;;;;;;;;;;;7.29;97.61;99476.66;5028687;28;19928;-75
2024/02/21 04:58:46;;;;;;;;;;;;;;;7.21;98.49;99475.88;5028939;28;19928;-78
2024/02/21 05:01:11;;;;;;;;;;;;;;;7.12;98.96;99480.97;5011408;28;19933;-76
2024/02/21 05:03:38;;;;;;;;;;;;;;;7.09;98.64;99484.53;5040368;28;19927;-77
2024/02/21 05:06:08;;;;;;;;;;;;;;;7.16;97.14;99473.53;5038444;28;19921;-80
2024/02/21 05:08:33;;;;;;;;;;;;;;;7.23;96.73;99478.25;5052205;28;19956;-75
2024/02/21 05:10:59;;;;;;;;;;;;;;;7.20;97.38;99487.25;5020749;28;20388;-77
2024/02/21 05:13:24;;;;;;;;;;;;;;;7.22;97.21;99480.22;5032516;28;20302;-77
2024/02/21 05:15:52;;;;;;;;;;;;;;;7.18;97.45;99476.66;5032470;28;19934;-75
2024/02/21 05:18:17;;;;;;;;;;;;;;;7.18;98.03;99476.66;5032831;28;19955;-77
2024/02/21 05:20:43;;;;;;;;;;;;;;;7.18;97.99;99476.66;5048275;28;19917;-77
2024/02/21 05:23:08;;;;;;;;;;;;;;;7.19;96.92;99477.44;5043670;28;20062;-79
2024/02/21 05:25:34;;;;;;;;;;;;;;;7.24;97.38;99477.03;5045187;28;19917;-79
2024/02/21 05:28:02;;;;;;;;;;;;;;;7.28;96.92;99489.63;5032035;28;19913;-79
2024/02/21 05:30:27;;;;;;;;;;;;;;;7.26;96.00;99486.47;5031669;28;19924;-77
2024/02/21 05:32:52;;;;;;;;;;;;;;;7.33;94.20;99491.19;5031941;28;20024;-77
2024/02/21 05:35:19;;;;;;;;;;;;;;;7.38;94.03;99499.03;5046326;28;20452;-78
2024/02/21 05:37:46;;;;;;;;;;;;;;;7.48;94.45;99505.66;5042454;28;19912;-76
2024/02/21 05:40:13;;;;;;;;;;;;;;;7.51;93.89;99499.38;5036133;28;19974;-75
2024/02/21 05:42:39;;;;;;;;;;;;;;;7.57;92.30;99506.84;5040855;28;19913;-76
2024/02/21 05:45:28;;;;;;;;;;;;;;;7.63;90.57;99509.97;5051659;28;19917;-77
2024/02/21 05:48:19;;;;;;;;;;;;;;;7.66;89.94;99506.41;5028913;27;19957;-78
2024/02/21 05:51:08;;;;;;;;;;;;;;;7.74;88.98;99513.47;5038181;28;19913;-77
2024/02/21 05:54:00;;;;;;;;;;;;;;;7.83;86.93;99513.84;5039932;28;19917;-77
2024/02/21 05:56:28;;;;;;;;;;;;;;;7.99;86.98;99516.16;5031558;28;19960;-77
2024/02/21 05:59:01;;;;;;;;;;;;;;;7.94;87.49;99513.81;5033230;28;19992;-76
2024/02/21 06:01:31;;;;;;;;;;;;;;;7.91;86.95;99507.13;5033120;28;19940;-78
2024/02/21 06:04:02;;;;;;;;;;;;;;;7.98;86.65;99517.31;5041468;28;19913;-78
2024/02/21 06:06:28;;;;;;;;;;;;;;;7.97;86.59;99516.53;5032020;28;19917;-77
2024/02/21 06:09:16;;;;;;;;;;;;;;;8.21;86.30;99525.09;5023909;28;19977;-77
2024/02/21 06:11:46;;;;;;;;;;;;;;;8.33;85.76;99521.91;5015979;28;19954;-76
2024/02/21 06:14:11;;;;;;;;;;;;;;;8.38;83.90;99521.50;5042278;28;19917;-77
2024/02/21 06:16:36;;;;;;;;;;;;;;;8.34;82.76;99529.00;5047459;28;20398;-77
2024/02/21 06:19:05;;;;;;;;;;;;;;;8.33;82.67;99530.16;5034045;28;19921;-76
2024/02/21 06:21:39;;;;;;;;;;;;;;;8.36;81.95;99529.38;5016197;28;19981;-78
2024/02/21 06:24:14;;;;;;;;;;;;;;;8.37;81.89;99528.19;5047079;28;19924;-76
2024/02/21 06:26:42;;;;;;;;;;;;;;;8.33;80.02;99530.97;5045803;28;19926;-76
2024/02/21 06:29:47;;;;;;;;;;;;;;;8.38;80.19;99532.53;5038286;28;19921;-75
2024/02/21 06:32:17;;;;;;;;;;;;;;;8.46;79.59;99543.09;5045537;28;20034;-75
2024/02/21 06:35:02;;;;;;;;;;;;;;;8.56;79.07;99545.00;5026555;28;19917;-77
2024/02/21 06:37:56;;;;;;;;;;;;;;;8.66;77.30;99548.09;5041619;28;20438;-77
2024/02/21 06:40:39;;;;;;;;;;;;;;;8.84;76.44;99549.56;5044718;28;19917;-75
2024/02/21 06:43:45;;;;;;;;;;;;;;;8.93;74.18;99549.88;5034557;28;19992;-77
2024/02/21 06:46:25;;;;;;;;;;;;;;;9.20;74.98;99539.03;5037943;28;19917;-77
2024/02/21 06:48:56;;;;;;;;;;;;;;;9.45;73.63;99540.81;5032442;28;19913;-78
2024/02/21 06:51:21;;;;;;;;;;;;;;;9.68;70.85;99543.72;5027986;28;19929;-76
2024/02/21 06:53:48;;;;;;;;;;;;;;;10.04;69.47;99541.38;5039761;28;19913;-77
2024/02/21 06:56:13;;;;;;;;;;;;;;;10.30;67.37;99553.72;5037075;28;19914;-78
2024/02/21 06:58:39;;;;;;;;;;;;;;;10.51;66.18;99553.41;5039651;28;19925;-78
2024/02/21 07:01:07;;;;;;;;;;;;;;;10.69;66.78;99558.72;5037332;27;19920;-76
2024/02/21 07:03:32;;;;;;;;;;;;;;;10.69;65.05;99562.25;5038345;28;19917;-77
2024/02/21 07:05:57;;;;;;;;;;;;;;;10.86;62.90;99552.13;5034770;28;19928;-78
2024/02/21 07:08:23;;;;;;;;;;;;;;;10.70;63.06;99554.75;5038701;28;20377;-76
2024/02/21 07:10:48;;;;;;;;;;;;;;;10.63;63.69;99552.88;5050072;28;20409;-77
2024/02/21 07:13:15;;;;;;;;;;;;;;;10.57;65.39;99555.31;5042272;28;19920;-77
2024/02/21 07:15:43;;;;;;;;;;;;;;;10.83;64.11;99553.00;5043728;28;20408;-79
2024/02/21 07:18:09;;;;;;;;;;;;;;;10.87;62.83;99554.50;5030693;28;19942;-75
2024/02/21 07:20:41;;;;;;;;;;;;;;;10.81;61.89;99552.63;5043274;28;20456;-79
2024/02/21 07:23:08;;;;;;;;;;;;;;;10.93;63.80;99550.06;5030860;28;19917;-75
2024/02/21 07:25:34;;;;;;;;;;;;;;;10.90;63.15;99547.34;5042436;28;19921;-78
2024/02/21 07:28:00;;;;;;;;;;;;;;;10.80;65.56;99553.81;5014490;28;19921;-75
2024/02/21 07:30:26;;;;;;;;;;;;;;;10.93;62.61;99557.56;5043777;28;19974;-77
2024/02/21 07:32:51;;;;;;;;;;;;;;;10.79;62.72;99561.31;5030327;28;19917;-78
2024/02/21 07:35:19;;;;;;;;;;;;;;;10.88;64.06;99564.34;5043352;28;19913;-77
2024/02/21 07:37:46;;;;;;;;;;;;;;;10.88;62.50;99560.81;5029858;28;19913;-76
2024/02/21 07:40:18;;;;;;;;;;;;;;;10.81;63.62;99549.84;5044177;28;19928;-77
2024/02/21 07:42:45;;;;;;;;;;;;;;;10.85;61.72;99556.13;5025693;28;19917;-76
2024/02/21 07:45:12;;;;;;;;;;;;;;;10.95;64.07;99563.47;5045298;28;19943;-77
2024/02/21 07:47:38;;;;;;;;;;;;;;;11.01;62.98;99553.50;5031192;28;19952;-76
2024/02/21 07:50:04;;;;;;;;;;;;;;;11.28;60.85;99551.47;5039855;28;20313;-76
2024/02/21 07:52:32;;;;;;;;;;;;;;;11.55;62.21;99553.41;5102058;27;19960;-76
2024/02/21 07:54:57;;;;;;;;;;;;;;;11.79;59.91;99547.47;5049875;27;19917;-79
2024/02/21 07:57:23;;;;;;;;;;;;;;;12.07;57.92;99551.66;5029741;28;19928;-77
2024/02/21 07:59:48;;;;;;;;;;;;;;;12.19;57.45;99551.03;5030683;28;19928;-75
2024/02/21 08:02:14;;;;;;;;;;;;;;;12.35;56.35;99544.00;5031508;28;19972;-75
2024/02/21 08:04:39;;;;;;;;;;;;;;;12.32;57.06;99542.06;5047269;28;19917;-76
2024/02/21 08:07:04;;;;;;;;;;;;;;;12.48;57.15;99536.56;5051884;28;19993;-77
2024/02/21 08:09:30;;;;;;;;;;;;;;;12.63;52.95;99535.06;5034111;28;19924;-78
2024/02/21 08:11:56;;;;;;;;;;;;;;;12.74;53.91;99534.81;5032759;28;19936;-76
2024/02/21 08:14:24;;;;;;;;;;;;;;;12.84;53.57;99533.81;5043896;28;19917;-74
2024/02/21 08:16:50;;;;;;;;;;;;;;;13.05;52.84;99531.31;5030211;28;19921;-76
2024/02/21 08:19:15;;;;;;;;;;;;;;;13.27;54.82;99525.25;5041718;28;19917;-78
2024/02/21 08:21:41;;;;;;;;;;;;;;;13.32;51.37;99541.41;5028372;28;19920;-78
2024/02/21 08:24:06;;;;;;;;;;;;;;;13.47;53.85;99539.03;5044461;28;20294;-77
2024/02/21 08:26:31;;;;;;;;;;;;;;;13.75;52.35;99539.06;5038287;28;20002;-78
2024/02/21 08:29:00;;;;;;;;;;;;;;;13.82;49.49;99538.88;5028512;28;19913;-77
2024/02/21 08:31:31;;;;;;;;;;;;;;;14.33;51.26;99533.50;5028711;28;19978;-77
2024/02/21 08:34:02;;;;;;;;;;;;;;;14.81;47.87;99537.25;5041883;28;19972;-76
2024/02/21 08:36:27;;;;;;;;;;;;;;;14.48;45.67;99540.22;5039595;28;19912;-77
2024/02/21 08:38:52;;;;;;;;;;;;;;;14.30;46.44;99539.94;5034659;28;20000;-75
2024/02/21 08:41:17;;;;;;;;;;;;;;;14.06;46.75;99544.19;5045876;28;19920;-77
2024/02/21 08:43:43;;;;;;;;;;;;;;;14.02;47.28;99540.75;5033544;28;19913;-73
2024/02/21 08:46:08;;;;;;;;;;;;;;;13.65;50.35;99537.34;5029030;28;20496;-77
2024/02/21 08:48:34;;;;;;;;;;;;;;;13.67;49.37;99548.81;5029170;28;19919;-74
2024/02/21 08:50:59;;;;;;;;;;;;;;;13.83;47.68;99548.78;5040398;28;20298;-76
2024/02/21 08:53:24;;;;;;;;;;;;;;;14.04;48.96;99544.66;5030934;28;19921;-74
2024/02/21 08:55:49;;;;;;;;;;;;;;;14.31;47.23;99551.81;5029428;28;19917;-75
2024/02/21 08:58:17;;;;;;;;;;;;;;;14.22;47.19;99544.94;5028281;28;23831;-75
2024/02/21 09:00:42;;;;;;;;;;;;;;;14.38;44.32;99546.88;5040585;28;19921;-76
2024/02/21 09:03:07;;;;;;;;;;;;;;;14.58;43.80;99543.91;5048967;28;19917;-76
2024/02/21 09:05:34;;;;;;;;;;;;;;;14.61;43.22;99541.03;5048449;28;19917;-77
2024/02/21 09:08:00;;;;;;;;;;;;;;;14.61;43.43;99543.81;5043300;28;19924;-76
2024/02/21 09:10:25;;;;;;;;;;;;;;;14.87;44.08;99538.25;5040683;28;19913;-76
2024/02/21 09:12:51;;;;;;;;;;;;;;;15.02;43.20;99539.34;5030149;28;19913;-75
2024/02/21 09:15:16;;;;;;;;;;;;;;;15.12;43.40;99540.25;5040929;28;20012;-78
2024/02/21 09:17:41;;;;;;;;;;;;;;;15.36;40.73;99538.66;5030015;28;20028;-76
2024/02/21 09:20:07;;;;;;;;;;;;;;;15.52;41.84;99526.59;5033888;28;20042;-76
2024/02/21 09:22:34;;;;;;;;;;;;;;;16.01;41.49;99524.88;5028572;28;20423;-76
2024/02/21 09:25:00;;;;;;;;;;;;;;;16.08;40.21;99527.41;5030757;28;19921;-75
2024/02/21 09:27:25;;;;;;;;;;;;;;;16.43;42.02;99522.53;5030569;28;19980;-78
2024/02/21 09:29:50;;;;;;;;;;;;;;;16.51;39.29;99525.84;5042008;28;19913;-77
2024/02/21 09:32:16;;;;;;;;;;;;;;;16.51;39.11;99532.19;5028710;28;19954;-77
2024/02/21 09:34:41;;;;;;;;;;;;;;;16.25;38.71;99523.19;5032601;28;19956;-78
2024/02/21 09:37:06;;;;;;;;;;;;;;;16.26;37.51;99529.56;5041418;28;19917;-76
2024/02/21 09:39:32;;;;;;;;;;;;;;;15.38;37.94;99525.06;5035015;28;19916;-75
2024/02/21 09:42:05;;;;;;;;;;;;;;;14.81;40.72;99526.13;5037675;28;19913;-75
2024/02/21 09:44:33;;;;;;;;;;;;;;;14.46;39.26;99526.00;5028468;28;19937;-76
2024/02/21 09:47:06;;;;;;;;;;;;;;;14.16;39.14;99529.22;5028315;28;20409;-74
2024/02/21 09:49:37;;;;;;;;;;;;;;;13.59;40.49;99530.00;5036456;28;19919;-74
2024/02/21 09:52:04;;;;;;;;;;;;;;;13.38;40.94;99532.09;5051446;28;20434;-76
2024/02/21 09:54:31;;;;;;;;;;;;;;;13.23;40.96;99528.13;5032252;28;19923;-75
2024/02/21 09:56:56;;;;;;;;;;;;;;;13.37;40.22;99519.44;5036685;28;19912;-76
2024/02/21 09:59:21;;;;;;;;;;;;;;;13.16;41.42;99522.75;5035954;28;19928;-76
2024/02/21 10:01:47;;;;;;;;;;;;;;;13.18;41.77;99516.78;5034144;28;19917;-75
2024/02/21 10:04:13;;;;;;;;;;;;;;;13.37;43.36;99510.34;5030297;28;19921;-76
2024/02/21 10:06:39;;;;;;;;;;;;;;;13.69;42.15;99506.72;5035454;28;19921;-76
2024/02/21 10:09:06;;;;;;;;;;;;;;;13.81;41.76;99501.22;5032538;28;20068;-76
2024/02/21 10:11:31;;;;;;;;;;;;;;;13.91;40.28;99504.94;5031457;28;20415;-76
2024/02/21 10:14:05;;;;;;;;;;;;;;;13.88;41.07;99499.44;5038084;28;19913;-78
2024/02/21 10:16:31;;;;;;;;;;;;;;;13.77;40.82;99491.41;5032820;28;20016;-78
2024/02/21 10:18:56;;;;;;;;;;;;;;;13.82;40.04;99493.66;5044712;28;19956;-75
2024/02/21 10:21:22;;;;;;;;;;;;;;;13.91;40.98;99482.69;5051010;28;19913;-78
2024/02/21 10:23:50;;;;;;;;;;;;;;;13.86;39.61;99483.25;5038255;28;19920;-75
2024/02/21 10:26:17;;;;;;;;;;;;;;;14.03;40.76;99478.41;5018120;28;19924;-78
2024/02/21 10:28:44;;;;;;;;;;;;;;;14.39;39.75;99470.59;5030701;28;19913;-74
2024/02/21 10:31:10;;;;;;;;;;;;;;;14.36;39.34;99468.66;5018304;28;19921;-78
2024/02/21 10:33:36;;;;;;;;;;;;;;;14.57;38.49;99464.50;5031180;28;19941;-75
2024/02/21 10:36:13;;;;;;;;;;;;;;;14.57;37.62;99465.28;5043817;28;20275;-75
2024/02/21 10:38:39;;;;;;;;;;;;;;;14.74;37.85;99459.59;5044312;28;19924;-76
2024/02/21 10:41:06;;;;;;;;;;;;;;;14.88;38.46;99451.56;5037762;28;19913;-76
2024/02/21 10:43:37;;;;;;;;;;;;;;;15.12;38.75;99446.41;5050660;28;20035;-74
2024/02/21 10:46:04;;;;;;;;;;;;;;;15.36;37.56;99452.34;5036904;28;19917;-75
2024/02/21 10:48:33;;;;;;;;;;;;;;;15.37;35.91;99435.16;5037256;28;19917;-76
2024/02/21 10:51:11;;;;;;;;;;;;;;;15.46;37.24;99429.69;5037204;28;20290;-76
2024/02/21 10:53:44;;;;;;;;;;;;;;;15.22;36.52;99428.56;5035273;28;19957;-75
2024/02/21 10:56:15;;;;;;;;;;;;;;;14.98;37.09;99428.16;5038825;28;19916;-78
2024/02/21 10:58:41;;;;;;;;;;;;;;;14.88;38.67;99423.75;5030041;28;19953;-74
2024/02/21 11:01:07;;;;;;;;;;;;;;;15.06;37.40;99425.94;5030065;28;19917;-75
2024/02/21 11:03:33;;;;;;;;;;;;;;;15.04;38.73;99420.03;5043118;28;19920;-74
2024/02/21 11:06:01;;;;;;;;;;;;;;;15.18;37.64;99421.56;5043510;28;19990;-74
2024/02/21 11:08:28;;;;;;;;;;;;;;;15.24;37.21;99409.41;5027199;28;19918;-75
2024/02/21 11:10:56;;;;;;;;;;;;;;;14.90;38.25;99420.50;5039871;28;19934;-76
2024/02/21 11:13:30;;;;;;;;;;;;;;;14.62;37.05;99420.22;5027222;28;19918;-78
2024/02/21 11:16:08;;;;;;;;;;;;;;;14.68;37.63;99416.88;5039625;28;19923;-76
2024/02/21 11:18:34;;;;;;;;;;;;;;;14.77;38.57;99419.75;5025344;28;20298;-77
2024/02/21 11:20:59;;;;;;;;;;;;;;;14.74;37.51;99412.28;5048651;28;19999;-74
2024/02/21 11:23:27;;;;;;;;;;;;;;;14.77;38.60;99412.16;5034544;28;20309;-76
2024/02/21 11:26:03;;;;;;;;;;;;;;;14.69;37.36;99408.06;5025918;28;19926;-74
2024/02/21 11:28:29;;;;;;;;;;;;;;;14.79;39.40;99408.94;5037253;28;19936;-75
2024/02/21 11:31:04;;;;;;;;;;;;;;;14.77;37.04;99405.84;5033420;28;20378;-75
2024/02/21 11:33:29;;;;;;;;;;;;;;;14.96;38.27;99402.00;5044053;28;19932;-75
2024/02/21 11:35:55;;;;;;;;;;;;;;;15.37;36.80;99398.22;5028969;28;19917;-76
2024/02/21 11:38:22;;;;;;;;;;;;;;;15.52;35.50;99402.06;5029731;28;19941;-77
2024/02/21 11:40:48;;;;;;;;;;;;;;;15.73;34.90;99401.28;5037097;28;19921;-75
2024/02/21 11:43:13;;;;;;;;;;;;;;;15.19;36.30;99398.81;5034811;28;19917;-75
2024/02/21 11:45:41;;;;;;;;;;;;;;;14.80;36.85;99396.59;5028772;28;19928;-78
2024/02/21 11:48:07;;;;;;;;;;;;;;;14.63;37.72;99396.75;5029056;28;19928;-78
2024/02/21 11:50:34;;;;;;;;;;;;;;;14.48;38.11;99383.72;5016633;28;19922;-78
2024/02/21 11:52:59;;;;;;;;;;;;;;;14.39;38.38;99378.84;5038973;28;19931;-76
2024/02/21 11:55:24;;;;;;;;;;;;;;;14.30;38.60;99384.25;5034171;28;20354;-75
2024/02/21 11:57:51;;;;;;;;;;;;;;;14.02;38.47;99374.03;5044212;28;19921;-76
2024/02/21 12:00:18;;;;;;;;;;;;;;;13.82;40.55;99375.00;5041711;28;20318;-75
2024/02/21 12:02:45;;;;;;;;;;;;;;;13.58;40.19;99379.28;5031068;28;20378;-76
2024/02/21 12:05:10;;;;;;;;;;;;;;;13.36;41.17;99379.09;5049417;28;19912;-75
2024/02/21 12:07:41;;;;;;;;;;;;;;;13.04;40.86;99368.84;5047548;28;20069;-73
2024/02/21 12:10:10;;;;;;;;;;;;;;;12.82;42.73;99373.38;5038262;28;19913;-75
2024/02/21 12:12:37;;;;;;;;;;;;;;;12.77;43.82;99373.13;5033164;28;20298;-75
2024/02/21 12:15:04;;;;;;;;;;;;;;;12.52;45.39;99362.66;5038692;28;19924;-75
2024/02/21 12:17:29;;;;;;;;;;;;;;;12.46;44.55;99353.31;5049400;28;19925;-75
2024/02/21 12:20:00;;;;;;;;;;;;;;;12.67;44.02;99349.22;5046756;28;19979;-75
2024/02/21 12:22:27;;;;;;;;;;;;;;;12.98;42.75;99348.38;5033776;28;19913;-74
2024/02/21 12:24:53;;;;;;;;;;;;;;;13.19;41.65;99341.53;5026387;28;19966;-75
2024/02/21 12:27:23;;;;;;;;;;;;;;;13.38;42.16;99340.56;5029237;28;19921;-75
2024/02/21 12:29:49;;;;;;;;;;;;;;;13.40;40.63;99331.81;5029142;28;20417;-75
2024/02/21 12:32:14;;;;;;;;;;;;;;;13.48;41.28;99329.63;5023543;28;19917;-76
2024/02/21 12:34:41;;;;;;;;;;;;;;;13.47;40.50;99331.59;5012484;28;19917;-76
2024/02/21 12:37:07;;;;;;;;;;;;;;;13.37;39.77;99325.16;5020400;28;19969;-76
2024/02/21 12:39:32;;;;;;;;;;;;;;;13.44;40.17;99332.50;5032026;28;19916;-79
2024/02/21 12:41:59;;;;;;;;;;;;;;;13.48;40.56;99324.06;5029796;28;19917;-77
2024/02/21 12:44:24;;;;;;;;;;;;;;;13.25;40.01;99323.13;5033074;28;19928;-76
2024/02/21 12:46:53;;;;;;;;;;;;;;;13.26;41.10;99323.91;5036319;28;19917;-76
2024/02/21 12:49:19;;;;;;;;;;;;;;;13.28;39.19;99321.44;5039851;28;19976;-76
2024/02/21 12:51:46;;;;;;;;;;;;;;;13.17;38.30;99320.97;5038472;28;20528;-78